Time;durP1;ratioP1;P1;durP2;ratioP2;P2;SDS_P1;SDS_P2;PMS_P1;PMS_P2;Temp;Humidity;BMP_temperature;BMP_pressure;BME280_temperature;BME280_humidity;BME280_pressure;Samples;Min_cycle;Max_cycle;Signal;HPM_P1;HPM_P2
2022/07/21 00:01:21;;;;;;;5.18;3.90;;;22.80;99.90;;;;;;5067382;28;20219;-83
2022/07/21 00:04:10;;;;;;;10.73;4.47;;;22.70;99.90;;;;;;5031039;28;20228;-83
2022/07/21 00:07:00;;;;;;;6.32;4.40;;;22.60;99.90;;;;;;5038760;28;20385;-84
2022/07/21 00:09:49;;;;;;;5.55;4.30;;;22.60;99.90;;;;;;5029588;28;20235;-83
2022/07/21 00:12:38;;;;;;;8.50;4.45;;;22.50;99.90;;;;;;5045615;28;20225;-83
2022/07/21 00:15:29;;;;;;;4.72;4.20;;;22.40;99.90;;;;;;5035744;28;20221;-83
2022/07/21 00:18:19;;;;;;;6.93;4.10;;;22.40;99.90;;;;;;5046245;28;20224;-84
2022/07/21 00:21:08;;;;;;;4.50;3.83;;;22.40;99.90;;;;;;5034928;28;20228;-83
2022/07/21 00:23:59;;;;;;;4.97;4.00;;;22.40;99.90;;;;;;5046659;28;20221;-84
2022/07/21 00:26:47;;;;;;;4.28;3.88;;;22.50;99.90;;;;;;5050979;28;20240;-83
2022/07/21 00:29:36;;;;;;;5.32;4.15;;;22.50;99.90;;;;;;5029903;28;20403;-83
2022/07/21 00:32:25;;;;;;;6.38;4.43;;;22.50;99.90;;;;;;5054486;28;20302;-83
2022/07/21 00:35:21;;;;;;;4.55;3.70;;;22.40;99.90;;;;;;5030975;28;20217;-83
2022/07/21 00:38:09;;;;;;;4.45;4.05;;;22.50;99.90;;;;;;5046980;28;20227;-83
2022/07/21 00:40:59;;;;;;;5.45;4.20;;;22.40;99.90;;;;;;5046911;28;20390;-83
2022/07/21 00:43:48;;;;;;;4.40;3.92;;;22.30;99.90;;;;;;5040871;28;20233;-88
2022/07/21 00:46:37;;;;;;;4.60;3.90;;;22.30;99.90;;;;;;5062154;28;20228;-86
2022/07/21 00:49:27;;;;;;;6.15;3.97;;;22.20;99.90;;;;;;5037003;28;20703;-86
2022/07/21 00:52:17;;;;;;;5.85;4.35;;;22.20;99.90;;;;;;5060498;28;20275;-83
2022/07/21 00:55:09;;;;;;;4.88;4.07;;;22.20;99.90;;;;;;5048552;28;20232;-83
2022/07/21 00:58:02;;;;;;;3.90;3.50;;;22.10;99.90;;;;;;5031455;28;20225;-83
2022/07/21 01:00:51;;;;;;;4.20;3.75;;;22.10;99.90;;;;;;5030870;28;20239;-83
2022/07/21 01:03:40;;;;;;;6.43;3.65;;;22.10;99.90;;;;;;5058257;28;20235;-83
2022/07/21 01:06:28;;;;;;;5.43;4.45;;;22.10;99.90;;;;;;5051693;28;20220;-83
2022/07/21 01:09:17;;;;;;;6.00;3.60;;;22.10;99.90;;;;;;5063899;28;20224;-83
2022/07/21 01:12:07;;;;;;;5.15;4.05;;;22.10;99.90;;;;;;5065384;28;20303;-83
2022/07/21 01:14:59;;;;;;;7.82;3.60;;;22.10;99.90;;;;;;5051834;28;20227;-83
2022/07/21 01:17:48;;;;;;;6.70;3.70;;;22.10;99.90;;;;;;5050712;28;20238;-83
2022/07/21 01:20:37;;;;;;;6.05;3.92;;;22.00;99.90;;;;;;5041175;28;20240;-83
2022/07/21 01:23:27;;;;;;;6.03;3.50;;;22.00;99.90;;;;;;5063945;28;20239;-83
2022/07/21 01:26:16;;;;;;;5.65;3.80;;;21.90;99.90;;;;;;5073361;28;20228;-84
2022/07/21 01:29:04;;;;;;;4.65;3.97;;;21.80;99.90;;;;;;5049971;28;20303;-84
2022/07/21 01:31:53;;;;;;;4.65;4.05;;;21.70;99.90;;;;;;5060343;28;20453;-83
2022/07/21 01:34:42;;;;;;;7.95;4.22;;;21.70;99.90;;;;;;5060228;28;20225;-82
2022/07/21 01:37:32;;;;;;;4.70;3.50;;;21.70;99.90;;;;;;5049848;28;20297;-83
2022/07/21 01:43:28;;;;;;;5.05;3.70;;;21.70;99.90;;;;;;5045877;28;20283;-83
2022/07/21 01:46:16;;;;;;;7.78;4.00;;;21.70;99.90;;;;;;5061496;28;20216;-83
2022/07/21 01:49:07;;;;;;;4.55;3.78;;;21.50;99.90;;;;;;5026785;28;20240;-82
2022/07/21 01:51:56;;;;;;;5.30;3.63;;;21.60;99.90;;;;;;5050073;28;20297;-83
2022/07/21 01:54:44;;;;;;;4.57;3.50;;;21.50;99.90;;;;;;5045410;28;20227;-83
2022/07/21 01:57:34;;;;;;;5.18;3.60;;;21.50;99.90;;;;;;5045606;28;20216;-83
2022/07/21 02:00:23;;;;;;;4.90;3.88;;;21.50;99.90;;;;;;5047002;28;20335;-82
2022/07/21 02:03:12;;;;;;;5.32;3.88;;;21.50;99.90;;;;;;5047886;28;20254;-82
2022/07/21 02:06:05;;;;;;;3.70;3.40;;;21.40;99.90;;;;;;5051234;28;20713;-82
2022/07/21 02:08:54;;;;;;;5.03;3.78;;;21.40;99.90;;;;;;5069931;28;20276;-82
2022/07/21 02:11:43;;;;;;;4.90;3.42;;;21.40;99.90;;;;;;5047011;28;20228;-82
2022/07/21 02:14:33;;;;;;;4.72;3.45;;;21.50;99.90;;;;;;5051049;28;20325;-82
2022/07/21 02:17:22;;;;;;;5.93;3.80;;;21.50;99.90;;;;;;5061974;28;20217;-83
2022/07/21 02:20:12;;;;;;;5.43;3.63;;;21.40;99.90;;;;;;5068163;28;20361;-88
2022/07/21 02:23:00;;;;;;;4.38;3.42;;;21.30;99.90;;;;;;5046951;28;20235;-83
2022/07/21 02:25:49;;;;;;;4.55;3.45;;;21.30;99.90;;;;;;5062298;28;20398;-86
2022/07/21 02:28:38;;;;;;;5.15;3.45;;;21.30;99.90;;;;;;5051896;28;20224;-83
2022/07/21 02:31:28;;;;;;;7.25;3.45;;;21.20;99.90;;;;;;5064636;28;20224;-83
2022/07/21 02:34:17;;;;;;;5.25;3.47;;;21.30;99.90;;;;;;5062667;28;20256;-83
2022/07/21 02:37:06;;;;;;;5.50;3.17;;;21.10;99.90;;;;;;5062157;28;20595;-83
2022/07/21 02:39:57;;;;;;;5.75;3.58;;;21.30;99.90;;;;;;5065572;28;20234;-82
2022/07/21 02:42:45;;;;;;;4.28;3.70;;;21.20;99.90;;;;;;5047815;28;20710;-82
2022/07/21 02:45:36;;;;;;;4.82;3.45;;;21.00;99.90;;;;;;5054803;28;20224;-86
2022/07/21 02:48:26;;;;;;;6.22;3.17;;;21.00;99.90;;;;;;5064712;28;20358;-86
2022/07/21 02:51:15;;;;;;;5.20;3.70;;;21.00;99.90;;;;;;5056077;28;20228;-86
2022/07/21 02:54:04;;;;;;;3.75;3.25;;;21.00;99.90;;;;;;5076091;28;20213;-85
2022/07/21 02:56:53;;;;;;;6.15;3.28;;;21.00;99.90;;;;;;5054984;28;20249;-82
2022/07/21 02:59:41;;;;;;;5.22;3.50;;;20.90;99.90;;;;;;5062454;28;20247;-83
2022/07/21 03:02:30;;;;;;;6.63;3.28;;;21.00;99.90;;;;;;5078073;28;20240;-82
2022/07/21 03:05:20;;;;;;;7.20;3.40;;;21.10;99.90;;;;;;5073844;28;20611;-82
2022/07/21 03:08:09;;;;;;;3.33;2.80;;;21.10;99.90;;;;;;5062376;28;20212;-82
2022/07/21 03:10:58;;;;;;;4.18;2.65;;;21.00;99.90;;;;;;5083739;28;20228;-82
2022/07/21 03:13:47;;;;;;;6.20;3.00;;;21.10;99.90;;;;;;5064184;28;20712;-82
2022/07/21 03:16:36;;;;;;;3.65;3.00;;;21.20;99.90;;;;;;5075924;28;20227;-82
2022/07/21 03:19:24;;;;;;;4.30;3.28;;;21.20;99.90;;;;;;5075907;28;20247;-82
2022/07/21 03:22:14;;;;;;;3.95;2.90;;;21.10;99.90;;;;;;5071556;28;20218;-82
2022/07/21 03:25:06;;;;;;;5.80;3.17;;;21.10;99.90;;;;;;5067675;28;20312;-82
2022/07/21 03:27:54;;;;;;;7.10;3.08;;;21.00;99.90;;;;;;5076965;28;20231;-84
2022/07/21 03:30:43;;;;;;;6.93;2.97;;;21.00;99.90;;;;;;5080851;28;20265;-84
2022/07/21 03:33:32;;;;;;;5.80;3.40;;;21.00;99.90;;;;;;5072246;28;20285;-82
2022/07/21 03:36:22;;;;;;;6.60;3.28;;;21.10;99.90;;;;;;5070202;28;20226;-83
2022/07/21 03:39:12;;;;;;;4.97;3.20;;;21.10;99.90;;;;;;5065526;28;20246;-83
2022/07/21 03:42:03;;;;;;;4.88;3.33;;;21.20;99.90;;;;;;5068023;28;20220;-83
2022/07/21 03:44:51;;;;;;;6.55;3.42;;;21.10;99.90;;;;;;5056470;28;20822;-83
2022/07/21 03:47:40;;;;;;;4.68;3.22;;;21.10;99.90;;;;;;5055361;28;20277;-83
2022/07/21 03:50:30;;;;;;;5.30;3.15;;;21.10;99.90;;;;;;5053319;28;20278;-83
2022/07/21 03:53:19;;;;;;;5.22;3.63;;;21.20;99.90;;;;;;5066709;28;20254;-83
2022/07/21 03:56:11;;;;;;;5.20;3.15;;;21.20;99.90;;;;;;5047632;28;20227;-84
2022/07/21 03:59:00;;;;;;;3.30;2.90;;;21.20;99.90;;;;;;5068994;28;20220;-83
2022/07/21 04:01:48;;;;;;;6.35;2.90;;;21.30;99.90;;;;;;5080275;28;20220;-83
2022/07/21 04:04:37;;;;;;;6.22;3.60;;;21.30;99.90;;;;;;5067108;28;20216;-88
2022/07/21 04:07:26;;;;;;;4.40;3.10;;;21.40;99.90;;;;;;5080319;28;20635;-84
2022/07/21 04:10:17;;;;;;;5.53;3.45;;;21.40;99.90;;;;;;5061192;28;20231;-83
2022/07/21 04:13:09;;;;;;;6.35;3.38;;;21.40;99.90;;;;;;5061380;28;20239;-83
2022/07/21 04:15:58;;;;;;;4.88;2.97;;;21.60;99.90;;;;;;5074223;28;20276;-84
2022/07/21 04:18:47;;;;;;;8.90;3.25;;;21.50;99.90;;;;;;5077231;28;20584;-84
2022/07/21 04:21:36;;;;;;;3.85;3.05;;;21.60;99.90;;;;;;5073557;28;20230;-84
2022/07/21 04:24:24;;;;;;;5.53;3.35;;;21.70;99.90;;;;;;5063322;28;20361;-83
2022/07/21 04:27:13;;;;;;;6.20;3.15;;;21.60;99.90;;;;;;5053651;28;20335;-83
2022/07/21 04:30:05;;;;;;;5.70;3.35;;;21.60;99.90;;;;;;5051607;28;20220;-90
2022/07/21 04:32:54;;;;;;;7.55;2.90;;;21.60;99.90;;;;;;5055646;28;20232;-83
2022/07/21 04:35:42;;;;;;;3.85;2.85;;;21.70;99.90;;;;;;5062247;28;20238;-83
2022/07/21 04:38:31;;;;;;;4.43;2.95;;;21.80;99.90;;;;;;5072199;28;20223;-84
2022/07/21 04:41:20;;;;;;;3.63;3.10;;;21.90;99.90;;;;;;5037699;28;20729;-84
2022/07/21 04:44:09;;;;;;;6.20;2.78;;;22.00;99.90;;;;;;5050934;28;20224;-84
2022/07/21 04:46:59;;;;;;;4.43;2.55;;;22.10;99.90;;;;;;5056468;28;20338;-84
2022/07/21 04:49:48;;;;;;;3.47;2.40;;;22.20;99.90;;;;;;5052755;28;20303;-83
2022/07/21 04:52:37;;;;;;;2.65;2.40;;;22.20;99.90;;;;;;5047006;28;20236;-83
2022/07/21 04:55:26;;;;;;;5.43;2.40;;;22.40;99.90;;;;;;5051427;28;20546;-82
2022/07/21 04:58:14;;;;;;;4.22;2.60;;;22.30;99.90;;;;;;5069230;28;20224;-82
2022/07/21 05:01:03;;;;;;;7.60;2.40;;;22.30;99.90;;;;;;5051676;28;20220;-81
2022/07/21 05:03:53;;;;;;;9.95;2.92;;;22.30;99.90;;;;;;5050851;28;20212;-82
2022/07/21 05:06:42;;;;;;;4.30;2.42;;;22.40;99.90;;;;;;5061646;28;20332;-82
2022/07/21 05:09:30;;;;;;;5.47;2.28;;;22.50;99.90;;;;;;5060517;28;20311;-82
2022/07/21 05:12:19;;;;;;;4.18;2.58;;;22.60;99.90;;;;;;5063746;28;20468;-82
2022/07/21 05:15:11;;;;;;;4.88;2.40;;;22.70;99.90;;;;;;5049198;28;20273;-82
2022/07/21 05:17:59;;;;;;;2.92;2.40;;;22.80;99.90;;;;;;5068835;28;20220;-82
2022/07/21 05:20:50;;;;;;;4.38;2.45;;;22.90;99.90;;;;;;5052413;28;20227;-89
2022/07/21 05:23:38;;;;;;;4.50;2.67;;;22.90;99.90;;;;;;5077933;28;20749;-87
2022/07/21 05:26:27;;;;;;;2.83;2.30;;;22.90;99.90;;;;;;5078418;28;20232;-86
2022/07/21 05:29:16;;;;;;;2.22;2.03;;;23.00;99.90;;;;;;5055967;28;20307;-83
2022/07/21 05:32:05;;;;;;;7.70;2.50;;;23.40;98.10;;;;;;5065448;28;20223;-83
2022/07/21 05:34:55;;;;;;;5.25;2.28;;;23.90;96.90;;;;;;5082760;28;20246;-84
2022/07/21 05:37:46;;;;;;;4.75;2.17;;;24.40;94.80;;;;;;5061356;28;20770;-83
2022/07/21 05:40:35;;;;;;;4.10;2.05;;;26.00;91.60;;;;;;5051262;28;20906;-83
2022/07/21 05:43:23;;;;;;;3.75;2.13;;;25.10;88.80;;;;;;5056073;28;20213;-82
2022/07/21 05:46:12;;;;;;;3.75;2.50;;;24.50;91.40;;;;;;5067232;28;20299;-79
2022/07/21 05:49:00;;;;;;;3.65;2.45;;;24.20;92.40;;;;;;5064813;28;20227;-79
2022/07/21 05:51:49;;;;;;;4.43;2.28;;;24.10;92.50;;;;;;5068830;28;20626;-82
2022/07/21 05:54:39;;;;;;;4.90;2.15;;;24.00;92.40;;;;;;5062685;28;20305;-84
2022/07/21 05:57:28;;;;;;;5.50;2.33;;;23.90;92.50;;;;;;5058120;28;20224;-76
2022/07/21 06:00:18;;;;;;;5.63;2.33;;;23.80;92.50;;;;;;5045428;28;20231;-76
2022/07/21 06:03:06;;;;;;;3.40;2.17;;;24.00;92.60;;;;;;5061715;28;21100;-77
2022/07/21 06:06:00;;;;;;;3.55;2.20;;;24.10;92.10;;;;;;5054120;28;20219;-78
2022/07/21 06:08:49;;;;;;;5.40;2.45;;;24.90;90.60;;;;;;5048635;28;20236;-77
2022/07/21 06:11:40;;;;;;;4.35;2.38;;;25.10;90.00;;;;;;5048415;28;20219;-78
2022/07/21 06:14:28;;;;;;;3.80;2.60;;;24.80;90.50;;;;;;5057906;28;20225;-78
2022/07/21 06:17:17;;;;;;;6.63;2.60;;;24.60;90.80;;;;;;5062258;28;20229;-78
2022/07/21 06:20:07;;;;;;;5.75;2.60;;;24.50;91.10;;;;;;5049312;28;20223;-77
2022/07/21 06:22:56;;;;;;;6.35;3.60;;;24.50;91.00;;;;;;5044791;28;20220;-77
2022/07/21 06:25:45;;;;;;;5.43;3.65;;;24.50;91.30;;;;;;5048785;28;20404;-77
2022/07/21 06:28:35;;;;;;;3.22;2.42;;;24.50;91.60;;;;;;5044645;28;20228;-83
2022/07/21 06:31:24;;;;;;;3.60;2.30;;;24.60;91.60;;;;;;5062149;28;20216;-79
2022/07/21 06:34:13;;;;;;;5.50;2.35;;;24.70;92.10;;;;;;5051237;28;20315;-80
2022/07/21 06:37:01;;;;;;;3.70;2.30;;;24.80;91.20;;;;;;5062917;28;20228;-79
2022/07/21 06:39:50;;;;;;;5.68;1.83;;;24.90;91.10;;;;;;5044217;28;20224;-78
2022/07/21 06:42:39;;;;;;;3.50;1.92;;;24.90;90.20;;;;;;5063920;28;21055;-80
2022/07/21 06:45:50;;;;;;;5.30;2.00;;;24.70;89.80;;;;;;5067242;28;20240;-77
2022/07/21 06:48:38;;;;;;;4.43;2.10;;;24.70;89.90;;;;;;5063729;28;20315;-79
2022/07/21 06:51:28;;;;;;;5.50;2.30;;;24.80;89.30;;;;;;5068449;28;20228;-78
2022/07/21 06:54:16;;;;;;;2.30;1.95;;;24.80;90.00;;;;;;5068723;28;20232;-80
2022/07/21 06:57:05;;;;;;;3.47;2.05;;;24.80;90.00;;;;;;5066892;28;20231;-78
2022/07/21 06:59:54;;;;;;;9.55;2.53;;;25.00;89.50;;;;;;5070685;28;20247;-78
2022/07/21 07:02:44;;;;;;;10.23;2.65;;;25.20;88.80;;;;;;5084592;28;20228;-81
2022/07/21 07:05:33;;;;;;;12.20;2.80;;;25.20;88.00;;;;;;5069452;28;20230;-78
2022/07/21 07:08:21;;;;;;;3.20;2.55;;;25.30;86.70;;;;;;5064974;28;20313;-78
2022/07/21 07:11:10;;;;;;;11.20;3.47;;;25.30;85.90;;;;;;5065184;28;20224;-77
2022/07/21 07:13:58;;;;;;;14.13;3.08;;;25.60;86.30;;;;;;5065736;28;20714;-78
2022/07/21 07:17:03;;;;;;;14.48;3.53;;;25.80;85.50;;;;;;5068958;28;20216;-81
2022/07/21 07:19:53;;;;;;;13.02;2.70;;;25.70;85.30;;;;;;5082118;28;20258;-76
2022/07/21 07:22:42;;;;;;;5.95;2.55;;;25.80;84.40;;;;;;5068432;28;20227;-77
2022/07/21 07:25:31;;;;;;;6.68;2.40;;;26.10;83.50;;;;;;5047920;28;20224;-76
2022/07/21 07:28:19;;;;;;;6.72;2.10;;;26.40;82.80;;;;;;5066377;28;21063;-76
2022/07/21 07:31:08;;;;;;;5.22;1.98;;;26.50;82.10;;;;;;5066928;28;20281;-76
2022/07/21 07:33:58;;;;;;;5.00;2.05;;;26.70;82.80;;;;;;5063132;28;20231;-80
2022/07/21 07:36:48;;;;;;;9.00;2.65;;;27.00;80.20;;;;;;5067056;28;20227;-88
2022/07/21 07:39:40;;;;;;;6.15;2.20;;;27.40;79.50;;;;;;5051962;28;20236;-78
2022/07/21 07:42:29;;;;;;;4.65;2.20;;;27.80;78.20;;;;;;5052069;28;20231;-78
2022/07/21 07:45:17;;;;;;;14.55;2.50;;;27.90;76.80;;;;;;5067642;28;20228;-79
2022/07/21 07:48:06;;;;;;;7.00;2.22;;;28.20;75.90;;;;;;5061109;28;20242;-96
2022/07/21 07:50:55;;;;;;;6.63;1.98;;;28.70;75.40;;;;;;5080248;28;20330;-78
2022/07/21 07:53:45;;;;;;;10.32;2.67;;;29.20;74.00;;;;;;5080025;28;20277;-78
2022/07/21 07:56:34;;;;;;;5.57;2.38;;;29.50;72.60;;;;;;5055514;28;20227;-78
2022/07/21 07:59:23;;;;;;;4.55;2.13;;;29.80;71.30;;;;;;5053289;28;20235;-76
2022/07/21 08:02:11;;;;;;;4.97;2.05;;;30.20;70.00;;;;;;5067307;28;20231;-80
2022/07/21 08:05:00;;;;;;;3.58;1.95;;;30.40;67.30;;;;;;5065423;28;20227;-78
2022/07/21 08:07:48;;;;;;;8.25;2.28;;;30.70;65.70;;;;;;5064701;28;20567;-76
2022/07/21 08:10:38;;;;;;;3.65;2.00;;;30.80;66.00;;;;;;5077034;28;20226;-77
2022/07/21 08:13:30;;;;;;;2.15;1.70;;;31.00;64.20;;;;;;5061035;28;20219;-76
2022/07/21 08:16:19;;;;;;;5.40;2.40;;;31.10;63.10;;;;;;5070212;28;20226;-77
2022/07/21 08:19:08;;;;;;;4.50;1.92;;;31.20;62.40;;;;;;5061934;28;20706;-76
2022/07/21 08:21:56;;;;;;;3.35;2.10;;;31.40;62.30;;;;;;5067880;28;20222;-77
2022/07/21 08:25:02;;;;;;;4.78;2.20;;;31.60;62.90;;;;;;5066130;28;20212;-76
2022/07/21 08:27:52;;;;;;;7.70;1.98;;;32.00;60.50;;;;;;5067789;28;20740;-75
2022/07/21 08:30:41;;;;;;;7.10;2.10;;;32.20;60.20;;;;;;5062964;28;20211;-76
2022/07/21 08:33:29;;;;;;;5.50;2.42;;;32.20;60.00;;;;;;5060986;28;20230;-77
2022/07/21 08:36:18;;;;;;;4.72;2.35;;;32.40;60.00;;;;;;5051150;28;20701;-80
2022/07/21 08:39:11;;;;;;;3.92;2.17;;;32.70;57.90;;;;;;5062809;28;20234;-81
2022/07/21 08:42:01;;;;;;;2.50;1.73;;;32.60;58.10;;;;;;5067820;28;20219;-79
2022/07/21 08:44:51;;;;;;;5.05;1.90;;;33.10;55.90;;;;;;5067183;28;20249;-81
2022/07/21 08:47:40;;;;;;;4.22;2.00;;;33.20;56.20;;;;;;5044062;28;20779;-87
2022/07/21 08:50:35;;;;;;;3.75;2.00;;;33.20;55.80;;;;;;5065621;28;20310;-79
2022/07/21 08:53:24;;;;;;;4.00;2.10;;;33.40;56.10;;;;;;5079015;28;20215;-79
2022/07/21 08:56:13;;;;;;;3.80;2.05;;;33.60;57.00;;;;;;5064383;28;20215;-79
2022/07/21 08:59:02;;;;;;;5.38;2.08;;;33.60;56.50;;;;;;5076388;28;20227;-81
2022/07/21 09:01:54;;;;;;;4.45;1.80;;;34.30;55.70;;;;;;5068143;28;20229;-81
2022/07/21 09:04:44;;;;;;;2.17;1.95;;;34.00;50.90;;;;;;5063252;28;20231;-78
2022/07/21 09:07:48;;;;;;;2.03;1.70;;;34.30;51.60;;;;;;5070611;28;20250;-78
2022/07/21 09:10:38;;;;;;;2.80;1.60;;;34.60;50.00;;;;;;5067634;28;20220;-82
2022/07/21 09:13:26;;;;;;;1.98;1.35;;;35.00;49.30;;;;;;5070907;28;20235;-81
2022/07/21 09:16:15;;;;;;;2.17;1.60;;;35.70;49.30;;;;;;5054234;28;20828;-79
2022/07/21 09:19:06;;;;;;;5.13;1.92;;;36.40;47.50;;;;;;5064512;28;20353;-80
2022/07/21 09:21:57;;;;;;;4.15;1.77;;;36.90;47.70;;;;;;5065186;28;20223;-82
2022/07/21 09:24:50;;;;;;;4.65;2.10;;;36.70;49.20;;;;;;5062655;28;20298;-82
2022/07/21 09:27:39;;;;;;;3.88;1.77;;;37.60;46.60;;;;;;5062715;28;20215;-81
2022/07/21 09:30:27;;;;;;;3.13;1.80;;;37.60;45.70;;;;;;5062494;28;20271;-81
2022/07/21 09:33:38;;;;;;;5.38;1.85;;;37.20;47.40;;;;;;5066278;28;20611;-82
2022/07/21 09:36:28;;;;;;;3.78;2.10;;;38.90;45.50;;;;;;5063614;28;20238;-81
2022/07/21 09:39:17;;;;;;;8.80;1.98;;;39.40;45.90;;;;;;5065474;28;20223;-80
2022/07/21 09:42:13;;;;;;;3.42;1.90;;;39.90;44.00;;;;;;5066525;28;20216;-78
2022/07/21 09:45:04;;;;;;;6.40;1.83;;;39.90;44.40;;;;;;5066755;28;20223;-78
2022/07/21 09:47:53;;;;;;;1.98;1.55;;;39.80;43.10;;;;;;5063965;28;20224;-80
2022/07/21 09:50:42;;;;;;;8.63;1.83;;;40.20;41.70;;;;;;5050532;28;20307;-76
2022/07/21 09:53:49;;;;;;;2.53;1.77;;;40.30;43.50;;;;;;5061349;28;20333;-75
2022/07/21 09:56:39;;;;;;;2.83;1.55;;;40.00;42.90;;;;;;5044010;28;20223;-75
2022/07/21 09:59:27;;;;;;;4.50;1.77;;;39.50;42.00;;;;;;5063504;28;20800;-79
2022/07/21 10:02:37;;;;;;;2.95;1.77;;;40.00;41.80;;;;;;5065850;28;20238;-79
2022/07/21 10:05:26;;;;;;;2.00;1.50;;;40.30;42.10;;;;;;5065101;28;21046;-77
2022/07/21 10:08:20;;;;;;;15.20;2.00;;;40.20;41.40;;;;;;5063078;28;20220;-75
2022/07/21 10:11:11;;;;;;;8.27;2.42;;;39.60;42.70;;;;;;5045440;28;20377;-75
2022/07/21 10:14:05;;;;;;;4.22;1.70;;;39.30;43.60;;;;;;5048090;28;20226;-75
2022/07/21 10:16:57;;;;;;;5.43;1.52;;;38.40;44.50;;;;;;5060338;28;20614;-81
2022/07/21 10:20:00;;;;;;;4.40;1.92;;;37.40;45.60;;;;;;5042416;28;20736;-80
2022/07/21 10:23:01;;;;;;;6.63;1.60;;;36.90;46.10;;;;;;5051934;28;20298;-88
2022/07/21 10:25:53;;;;;;;6.75;1.85;;;37.20;47.50;;;;;;5060803;28;20282;-81
2022/07/21 10:28:44;;;;;;;6.35;1.95;;;38.10;44.70;;;;;;5056706;28;20250;-76
2022/07/21 10:31:43;;;;;;;3.72;2.00;;;38.80;44.10;;;;;;5064809;28;20223;-82
2022/07/21 10:34:36;;;;;;;4.10;1.60;;;39.50;44.50;;;;;;5064481;28;20215;-82
2022/07/21 10:37:45;;;;;;;2.15;1.63;;;39.20;44.10;;;;;;5080804;28;20227;-80
2022/07/21 10:40:38;;;;;;;8.30;3.67;;;39.50;44.80;;;;;;5047127;28;20255;-81
2022/07/21 10:43:46;;;;;;;5.55;1.70;;;39.50;44.00;;;;;;5066964;28;20594;-79
2022/07/21 10:46:38;;;;;;;5.18;1.80;;;39.90;44.50;;;;;;5072066;28;20224;-81
2022/07/21 10:49:43;;;;;;;1.98;1.80;;;39.80;43.60;;;;;;5058345;28;20264;-80
2022/07/21 10:53:11;;;;;;;7.35;2.20;;;39.90;44.00;;;;;;5057898;28;20212;-79
2022/07/21 10:55:59;;;;;;;25.92;3.08;;;40.40;43.60;;;;;;5042634;28;20231;-75
2022/07/21 10:58:51;;;;;;;4.97;1.75;;;40.50;43.90;;;;;;5059623;28;20223;-80
2022/07/21 11:01:40;;;;;;;6.18;1.98;;;40.10;43.10;;;;;;5045763;28;20220;-80
2022/07/21 11:04:30;;;;;;;14.75;3.33;;;40.70;41.70;;;;;;5056790;28;20238;-75
2022/07/21 11:07:18;;;;;;;4.28;2.00;;;40.40;42.40;;;;;;5069878;28;20235;-81
2022/07/21 11:10:15;;;;;;;5.65;1.73;;;40.50;42.00;;;;;;5046062;28;20834;-79
2022/07/21 11:13:04;;;;;;;2.92;1.58;;;40.80;42.50;;;;;;5055993;28;20227;-79
2022/07/21 11:16:02;;;;;;;4.97;2.00;;;41.30;41.40;;;;;;5056483;28;20227;-75
2022/07/21 11:18:50;;;;;;;5.93;1.92;;;41.00;41.20;;;;;;5048951;28;20226;-76
2022/07/21 11:21:39;;;;;;;4.90;2.05;;;41.00;41.20;;;;;;5070612;28;20227;-80
2022/07/21 11:24:28;;;;;;;2.47;1.52;;;41.50;40.70;;;;;;5075174;28;20215;-78
2022/07/21 11:27:18;;;;;;;5.88;1.90;;;41.80;39.80;;;;;;5066523;28;20224;-75
2022/07/21 11:30:11;;;;;;;4.47;1.80;;;42.10;39.90;;;;;;5065910;28;20220;-76
2022/07/21 11:33:01;;;;;;;3.75;1.92;;;41.80;40.20;;;;;;5051269;28;20219;-78
2022/07/21 11:35:51;;;;;;;9.82;4.00;;;42.10;39.50;;;;;;5070695;28;20227;-81
2022/07/21 11:38:57;;;;;;;4.68;1.92;;;42.00;39.10;;;;;;5065539;28;20220;-78
2022/07/21 11:41:45;;;;;;;6.18;2.42;;;41.00;40.90;;;;;;5058992;28;20222;-80
2022/07/21 11:44:35;;;;;;;5.03;1.98;;;40.80;42.30;;;;;;5059971;28;20220;-75
2022/07/21 11:47:26;;;;;;;6.18;2.40;;;41.40;40.50;;;;;;5065558;28;20253;-75
2022/07/21 11:50:17;;;;;;;18.38;4.40;;;40.90;40.80;;;;;;5069327;28;20639;-76
2022/07/21 11:53:06;;;;;;;9.68;2.55;;;41.70;40.80;;;;;;5067372;28;20224;-77
2022/07/21 11:55:55;;;;;;;3.90;1.63;;;42.10;40.00;;;;;;5059305;28;20242;-82
2022/07/21 11:58:44;;;;;;;6.50;2.08;;;42.30;38.80;;;;;;5064532;28;20219;-77
2022/07/21 12:01:32;;;;;;;6.50;2.10;;;42.20;38.70;;;;;;5050686;28;20227;-78
2022/07/21 12:04:29;;;;;;;7.72;3.47;;;42.50;38.50;;;;;;5056927;28;20224;-80
2022/07/21 12:07:21;;;;;;;8.63;2.78;;;42.10;39.90;;;;;;5066470;28;20228;-74
2022/07/21 12:10:13;;;;;;;5.07;1.98;;;42.70;38.00;;;;;;5073512;28;20275;-78
2022/07/21 12:13:03;;;;;;;6.78;1.85;;;43.10;37.60;;;;;;5065417;28;20227;-79
2022/07/21 12:15:52;;;;;;;46.55;6.43;;;43.60;36.70;;;;;;5063337;28;20306;-78
2022/07/21 12:18:41;;;;;;;42.13;7.50;;;42.70;38.60;;;;;;5066379;28;20218;-75
2022/07/21 12:21:29;;;;;;;5.18;2.10;;;42.70;39.20;;;;;;5073240;28;20238;-79
2022/07/21 12:24:21;;;;;;;3.70;2.00;;;42.90;37.80;;;;;;5067470;28;20223;-79
2022/07/21 12:27:13;;;;;;;5.43;1.80;;;42.40;38.20;;;;;;5065871;28;20230;-75
2022/07/21 12:30:03;;;;;;;11.45;2.97;;;41.40;39.60;;;;;;5061906;28;20589;-81
2022/07/21 12:32:51;;;;;;;10.48;2.38;;;41.00;39.70;;;;;;5065924;28;20212;-81
2022/07/21 12:35:42;;;;;;;14.50;3.03;;;40.60;41.40;;;;;;5061082;28;20220;-75
2022/07/21 12:38:38;;;;;;;37.00;6.70;;;40.80;40.50;;;;;;5058796;28;20226;-81
2022/07/21 12:41:27;;;;;;;8.60;2.42;;;40.10;42.60;;;;;;5065744;28;20328;-80
2022/07/21 12:44:16;;;;;;;58.58;8.80;;;39.20;42.20;;;;;;5061526;28;20231;-82
2022/07/21 12:47:17;;;;;;;29.80;6.25;;;39.20;44.90;;;;;;5069458;28;20235;-75
2022/07/21 12:50:08;;;;;;;14.90;3.28;;;38.50;45.10;;;;;;5045249;28;20215;-86
2022/07/21 12:53:04;;;;;;;10.77;2.90;;;38.10;45.00;;;;;;5062928;28;20719;-82
2022/07/21 12:55:52;;;;;;;14.90;3.20;;;37.20;45.20;;;;;;5070833;28;20223;-86
2022/07/21 12:58:43;;;;;;;31.38;5.43;;;36.30;46.00;;;;;;5060223;28;20299;-81
2022/07/21 13:01:34;;;;;;;21.77;3.90;;;35.80;47.30;;;;;;5053478;28;20219;-80
2022/07/21 13:04:24;;;;;;;8.23;2.47;;;35.20;48.70;;;;;;5082966;28;20298;-87
2022/07/21 13:07:12;;;;;;;7.28;2.88;;;34.80;49.90;;;;;;5063993;28;20220;-80
2022/07/21 13:10:01;;;;;;;4.57;3.33;;;34.30;51.10;;;;;;5047006;28;20208;-81
2022/07/21 13:12:50;;;;;;;28.05;5.88;;;34.80;50.30;;;;;;5061388;28;20228;-76
2022/07/21 13:15:40;;;;;;;25.55;4.13;;;34.30;51.50;;;;;;5056290;28;20219;-76
2022/07/21 13:18:28;;;;;;;10.77;3.28;;;34.10;52.40;;;;;;5077280;28;20231;-78
2022/07/21 13:21:17;;;;;;;29.73;5.28;;;34.40;52.10;;;;;;5066430;28;20216;-78
2022/07/21 13:24:06;;;;;;;48.50;6.68;;;34.30;52.30;;;;;;5064384;28;20226;-80
2022/07/21 13:26:55;;;;;;;42.95;3.88;;;34.30;53.50;;;;;;5048581;28;20309;-76
2022/07/21 13:29:43;;;;;;;5.35;2.55;;;34.40;52.00;;;;;;5051090;28;20805;-76
2022/07/21 13:32:36;;;;;;;14.90;3.53;;;34.50;50.60;;;;;;5048927;28;20224;-77
2022/07/21 13:35:25;;;;;;;26.13;5.70;;;34.50;51.60;;;;;;5046814;28;20228;-77
2022/07/21 13:38:15;;;;;;;9.45;3.03;;;33.80;52.60;;;;;;5047532;28;20231;-76
2022/07/21 13:41:05;;;;;;;4.82;2.53;;;33.90;51.20;;;;;;5058258;28;20224;-76
2022/07/21 13:44:13;;;;;;;19.25;5.03;;;33.50;52.10;;;;;;5059118;28;20220;-77
2022/07/21 13:47:02;;;;;;;5.82;2.80;;;33.30;54.00;;;;;;5060190;28;20219;-77
2022/07/21 13:49:53;;;;;;;9.35;3.60;;;33.40;52.40;;;;;;5059174;28;20264;-76
2022/07/21 13:52:42;;;;;;;14.30;5.03;;;33.30;53.80;;;;;;5058930;28;20223;-76
2022/07/21 13:55:31;;;;;;;7.30;3.08;;;33.10;55.10;;;;;;5047544;28;20584;-76
2022/07/21 13:58:19;;;;;;;7.30;2.78;;;32.90;54.70;;;;;;5059188;28;20220;-76
2022/07/21 14:01:08;;;;;;;6.95;3.10;;;33.20;52.70;;;;;;5050196;28;20230;-76
2022/07/21 14:03:57;;;;;;;10.13;4.10;;;33.20;53.20;;;;;;5050176;28;20258;-77
2022/07/21 14:06:49;;;;;;;9.73;4.00;;;33.00;55.70;;;;;;5046081;28;20226;-77
2022/07/21 14:09:37;;;;;;;5.38;2.40;;;32.80;55.50;;;;;;5054528;28;20220;-76
2022/07/21 14:12:26;;;;;;;10.40;3.08;;;32.70;54.00;;;;;;5062439;28;20233;-77
2022/07/21 14:15:15;;;;;;;12.75;3.58;;;32.80;55.00;;;;;;5076799;28;20231;-76
2022/07/21 14:18:04;;;;;;;7.28;3.03;;;32.80;56.30;;;;;;5058673;28;20220;-77
2022/07/21 14:20:52;;;;;;;6.13;2.90;;;32.70;55.40;;;;;;5046505;28;20215;-77
2022/07/21 14:23:42;;;;;;;6.68;2.60;;;32.60;54.90;;;;;;5044187;28;20216;-77
2022/07/21 14:26:31;;;;;;;7.82;3.22;;;32.70;53.90;;;;;;5061642;28;20835;-77
2022/07/21 14:29:20;;;;;;;8.80;3.28;;;32.40;55.20;;;;;;5049668;28;20231;-77
2022/07/21 14:32:08;;;;;;;9.45;3.78;;;32.50;55.10;;;;;;5057159;28;20316;-76
2022/07/21 14:34:58;;;;;;;10.32;3.38;;;32.30;56.60;;;;;;5061389;28;20665;-76
2022/07/21 14:37:48;;;;;;;9.45;3.85;;;32.30;57.00;;;;;;5060623;28;20709;-78
2022/07/21 14:40:38;;;;;;;9.35;4.18;;;32.10;58.40;;;;;;5076832;28;20222;-78
2022/07/21 14:43:27;;;;;;;9.07;3.45;;;32.00;58.10;;;;;;5061490;28;20228;-78
2022/07/21 14:46:16;;;;;;;12.63;4.15;;;31.90;58.90;;;;;;5058486;28;20310;-77
2022/07/21 14:49:04;;;;;;;8.20;3.00;;;31.70;58.00;;;;;;5060727;28;20220;-77